sensor_id;sensor_type;location;lat;lon;timestamp;P1;durP1;ratioP1;P2;durP2;ratioP2
6426;SDS011;3246;42.664;23.308;2024-02-21T00:02:06;5.43;;;4.93;;
6426;SDS011;3246;42.664;23.308;2024-02-21T00:04:33;5.37;;;4.87;;
6426;SDS011;3246;42.664;23.308;2024-02-21T00:07:01;6.30;;;5.13;;
6426;SDS011;3246;42.664;23.308;2024-02-21T00:09:28;5.53;;;5.10;;
6426;SDS011;3246;42.664;23.308;2024-02-21T00:11:55;5.13;;;4.73;;
6426;SDS011;3246;42.664;23.308;2024-02-21T00:14:23;6.73;;;5.93;;
6426;SDS011;3246;42.664;23.308;2024-02-21T00:16:52;7.03;;;4.83;;
6426;SDS011;3246;42.664;23.308;2024-02-21T00:19:18;6.63;;;4.70;;
6426;SDS011;3246;42.664;23.308;2024-02-21T00:21:46;6.90;;;5.27;;
6426;SDS011;3246;42.664;23.308;2024-02-21T00:24:13;7.20;;;5.97;;
6426;SDS011;3246;42.664;23.308;2024-02-21T00:26:39;5.30;;;4.80;;
6426;SDS011;3246;42.664;23.308;2024-02-21T00:29:06;7.57;;;5.30;;
6426;SDS011;3246;42.664;23.308;2024-02-21T00:31:33;6.73;;;6.00;;
6426;SDS011;3246;42.664;23.308;2024-02-21T00:34:01;6.83;;;5.17;;
6426;SDS011;3246;42.664;23.308;2024-02-21T00:36:28;6.10;;;5.07;;
6426;SDS011;3246;42.664;23.308;2024-02-21T00:38:55;5.87;;;5.33;;
6426;SDS011;3246;42.664;23.308;2024-02-21T00:41:21;5.17;;;4.77;;
6426;SDS011;3246;42.664;23.308;2024-02-21T00:43:48;7.47;;;5.57;;
6426;SDS011;3246;42.664;23.308;2024-02-21T00:46:15;6.50;;;5.27;;
6426;SDS011;3246;42.664;23.308;2024-02-21T00:48:42;5.13;;;4.63;;
6426;SDS011;3246;42.664;23.308;2024-02-21T00:51:10;5.87;;;5.37;;
6426;SDS011;3246;42.664;23.308;2024-02-21T00:53:37;5.47;;;5.03;;
6426;SDS011;3246;42.664;23.308;2024-02-21T00:56:04;5.13;;;4.73;;
6426;SDS011;3246;42.664;23.308;2024-02-21T00:58:32;5.27;;;4.77;;
6426;SDS011;3246;42.664;23.308;2024-02-21T01:01:00;5.73;;;5.23;;
6426;SDS011;3246;42.664;23.308;2024-02-21T01:03:26;4.90;;;4.40;;
6426;SDS011;3246;42.664;23.308;2024-02-21T01:05:53;6.27;;;5.30;;
6426;SDS011;3246;42.664;23.308;2024-02-21T01:08:21;6.33;;;5.73;;
6426;SDS011;3246;42.664;23.308;2024-02-21T01:10:48;5.70;;;5.20;;
6426;SDS011;3246;42.664;23.308;2024-02-21T01:13:15;5.70;;;5.13;;
6426;SDS011;3246;42.664;23.308;2024-02-21T01:15:42;5.13;;;4.70;;
6426;SDS011;3246;42.664;23.308;2024-02-21T01:18:09;4.93;;;4.40;;
6426;SDS011;3246;42.664;23.308;2024-02-21T01:20:35;5.20;;;4.70;;
6426;SDS011;3246;42.664;23.308;2024-02-21T01:23:02;5.37;;;4.87;;
6426;SDS011;3246;42.664;23.308;2024-02-21T01:25:31;5.47;;;4.97;;
6426;SDS011;3246;42.664;23.308;2024-02-21T01:27:57;5.87;;;5.37;;
6426;SDS011;3246;42.664;23.308;2024-02-21T01:30:24;5.33;;;4.93;;
6426;SDS011;3246;42.664;23.308;2024-02-21T01:32:51;6.00;;;5.50;;
6426;SDS011;3246;42.664;23.308;2024-02-21T01:35:18;5.83;;;5.23;;
6426;SDS011;3246;42.664;23.308;2024-02-21T01:37:45;6.10;;;5.50;;
6426;SDS011;3246;42.664;23.308;2024-02-21T01:40:11;6.07;;;5.07;;
6426;SDS011;3246;42.664;23.308;2024-02-21T01:42:40;6.67;;;5.57;;
6426;SDS011;3246;42.664;23.308;2024-02-21T01:45:07;6.83;;;5.37;;
6426;SDS011;3246;42.664;23.308;2024-02-21T01:47:34;5.47;;;5.00;;
6426;SDS011;3246;42.664;23.308;2024-02-21T01:50:02;6.17;;;5.17;;
6426;SDS011;3246;42.664;23.308;2024-02-21T01:52:29;6.27;;;5.57;;
6426;SDS011;3246;42.664;23.308;2024-02-21T01:54:57;5.60;;;5.07;;
6426;SDS011;3246;42.664;23.308;2024-02-21T01:57:24;5.90;;;5.27;;
6426;SDS011;3246;42.664;23.308;2024-02-21T01:59:52;7.23;;;5.30;;
6426;SDS011;3246;42.664;23.308;2024-02-21T02:02:19;6.43;;;5.17;;
6426;SDS011;3246;42.664;23.308;2024-02-21T02:04:47;6.20;;;5.60;;
6426;SDS011;3246;42.664;23.308;2024-02-21T02:07:15;5.90;;;5.40;;
6426;SDS011;3246;42.664;23.308;2024-02-21T02:09:41;5.63;;;5.13;;
6426;SDS011;3246;42.664;23.308;2024-02-21T02:12:08;6.07;;;5.57;;
6426;SDS011;3246;42.664;23.308;2024-02-21T02:14:35;6.80;;;6.10;;
6426;SDS011;3246;42.664;23.308;2024-02-21T02:17:04;8.13;;;7.37;;
6426;SDS011;3246;42.664;23.308;2024-02-21T02:19:31;7.40;;;6.40;;
6426;SDS011;3246;42.664;23.308;2024-02-21T02:21:59;7.83;;;6.47;;
6426;SDS011;3246;42.664;23.308;2024-02-21T02:24:33;8.30;;;6.70;;
6426;SDS011;3246;42.664;23.308;2024-02-21T02:27:00;7.80;;;7.00;;
6426;SDS011;3246;42.664;23.308;2024-02-21T02:29:26;8.40;;;7.33;;
6426;SDS011;3246;42.664;23.308;2024-02-21T02:31:53;8.37;;;7.57;;
6426;SDS011;3246;42.664;23.308;2024-02-21T02:34:20;8.67;;;7.77;;
6426;SDS011;3246;42.664;23.308;2024-02-21T02:36:47;9.80;;;7.33;;
6426;SDS011;3246;42.664;23.308;2024-02-21T02:39:14;8.17;;;7.27;;
6426;SDS011;3246;42.664;23.308;2024-02-21T02:41:42;8.37;;;7.57;;
6426;SDS011;3246;42.664;23.308;2024-02-21T02:44:09;10.93;;;8.07;;
6426;SDS011;3246;42.664;23.308;2024-02-21T02:46:36;9.43;;;8.43;;
6426;SDS011;3246;42.664;23.308;2024-02-21T02:49:03;8.93;;;7.90;;
6426;SDS011;3246;42.664;23.308;2024-02-21T02:51:29;24.13;;;17.80;;
6426;SDS011;3246;42.664;23.308;2024-02-21T02:53:56;9.87;;;8.57;;
6426;SDS011;3246;42.664;23.308;2024-02-21T02:56:23;7.87;;;7.07;;
6426;SDS011;3246;42.664;23.308;2024-02-21T02:58:51;9.33;;;8.43;;
6426;SDS011;3246;42.664;23.308;2024-02-21T03:01:18;9.70;;;8.33;;
6426;SDS011;3246;42.664;23.308;2024-02-21T03:03:45;9.33;;;7.60;;
6426;SDS011;3246;42.664;23.308;2024-02-21T03:06:12;9.20;;;8.03;;
6426;SDS011;3246;42.664;23.308;2024-02-21T03:08:39;9.67;;;8.77;;
6426;SDS011;3246;42.664;23.308;2024-02-21T03:11:06;8.63;;;7.87;;
6426;SDS011;3246;42.664;23.308;2024-02-21T03:13:33;9.43;;;7.57;;
6426;SDS011;3246;42.664;23.308;2024-02-21T03:16:02;8.77;;;7.87;;
6426;SDS011;3246;42.664;23.308;2024-02-21T03:18:29;9.47;;;8.43;;
6426;SDS011;3246;42.664;23.308;2024-02-21T03:20:55;10.27;;;8.33;;
6426;SDS011;3246;42.664;23.308;2024-02-21T03:23:22;9.23;;;7.87;;
6426;SDS011;3246;42.664;23.308;2024-02-21T03:25:49;8.80;;;7.83;;
6426;SDS011;3246;42.664;23.308;2024-02-21T03:28:16;9.50;;;8.33;;
6426;SDS011;3246;42.664;23.308;2024-02-21T03:30:43;9.30;;;8.33;;
6426;SDS011;3246;42.664;23.308;2024-02-21T03:33:11;9.80;;;7.83;;
6426;SDS011;3246;42.664;23.308;2024-02-21T03:35:38;11.43;;;8.43;;
6426;SDS011;3246;42.664;23.308;2024-02-21T03:38:04;9.03;;;8.13;;
6426;SDS011;3246;42.664;23.308;2024-02-21T03:40:31;10.97;;;7.87;;
6426;SDS011;3246;42.664;23.308;2024-02-21T03:42:58;8.53;;;7.30;;
6426;SDS011;3246;42.664;23.308;2024-02-21T03:45:25;8.47;;;7.53;;
6426;SDS011;3246;42.664;23.308;2024-02-21T03:47:52;11.93;;;8.53;;
6426;SDS011;3246;42.664;23.308;2024-02-21T03:50:20;10.73;;;9.10;;
6426;SDS011;3246;42.664;23.308;2024-02-21T03:52:46;9.87;;;8.40;;
6426;SDS011;3246;42.664;23.308;2024-02-21T03:55:14;9.23;;;8.33;;
6426;SDS011;3246;42.664;23.308;2024-02-21T03:57:40;10.17;;;8.97;;
6426;SDS011;3246;42.664;23.308;2024-02-21T04:00:07;9.80;;;7.50;;
6426;SDS011;3246;42.664;23.308;2024-02-21T04:02:37;9.87;;;8.57;;
6426;SDS011;3246;42.664;23.308;2024-02-21T04:05:04;9.23;;;8.27;;
6426;SDS011;3246;42.664;23.308;2024-02-21T04:07:32;9.83;;;8.10;;
6426;SDS011;3246;42.664;23.308;2024-02-21T04:09:59;11.37;;;9.47;;
6426;SDS011;3246;42.664;23.308;2024-02-21T04:12:26;9.33;;;8.30;;
6426;SDS011;3246;42.664;23.308;2024-02-21T04:14:53;11.93;;;9.23;;
6426;SDS011;3246;42.664;23.308;2024-02-21T04:17:20;8.90;;;7.97;;
6426;SDS011;3246;42.664;23.308;2024-02-21T04:19:47;11.40;;;9.47;;
6426;SDS011;3246;42.664;23.308;2024-02-21T04:22:13;10.57;;;8.50;;
6426;SDS011;3246;42.664;23.308;2024-02-21T04:24:42;11.00;;;9.80;;
6426;SDS011;3246;42.664;23.308;2024-02-21T04:27:08;12.37;;;9.43;;
6426;SDS011;3246;42.664;23.308;2024-02-21T04:29:35;13.80;;;10.10;;
6426;SDS011;3246;42.664;23.308;2024-02-21T04:32:02;13.10;;;9.87;;
6426;SDS011;3246;42.664;23.308;2024-02-21T04:34:30;11.67;;;9.67;;
6426;SDS011;3246;42.664;23.308;2024-02-21T04:36:56;11.90;;;9.23;;
6426;SDS011;3246;42.664;23.308;2024-02-21T04:39:23;13.50;;;10.23;;
6426;SDS011;3246;42.664;23.308;2024-02-21T04:41:52;11.80;;;9.70;;
6426;SDS011;3246;42.664;23.308;2024-02-21T04:44:18;15.80;;;10.83;;
6426;SDS011;3246;42.664;23.308;2024-02-21T04:46:47;10.23;;;8.90;;
6426;SDS011;3246;42.664;23.308;2024-02-21T04:49:14;11.27;;;9.20;;
6426;SDS011;3246;42.664;23.308;2024-02-21T04:51:41;11.57;;;9.77;;
6426;SDS011;3246;42.664;23.308;2024-02-21T04:54:08;13.17;;;9.60;;
6426;SDS011;3246;42.664;23.308;2024-02-21T04:56:35;11.60;;;9.30;;
6426;SDS011;3246;42.664;23.308;2024-02-21T04:59:03;14.30;;;9.77;;
6426;SDS011;3246;42.664;23.308;2024-02-21T05:01:30;12.27;;;9.37;;
6426;SDS011;3246;42.664;23.308;2024-02-21T05:03:57;10.40;;;9.17;;
6426;SDS011;3246;42.664;23.308;2024-02-21T05:06:27;10.77;;;9.47;;
6426;SDS011;3246;42.664;23.308;2024-02-21T05:08:54;12.77;;;9.97;;
6426;SDS011;3246;42.664;23.308;2024-02-21T05:11:23;13.60;;;11.80;;
6426;SDS011;3246;42.664;23.308;2024-02-21T05:13:50;14.13;;;11.20;;
6426;SDS011;3246;42.664;23.308;2024-02-21T05:16:18;15.10;;;12.53;;
6426;SDS011;3246;42.664;23.308;2024-02-21T05:18:45;18.43;;;13.30;;
6426;SDS011;3246;42.664;23.308;2024-02-21T05:21:11;17.17;;;12.50;;
6426;SDS011;3246;42.664;23.308;2024-02-21T05:23:39;15.43;;;11.90;;
6426;SDS011;3246;42.664;23.308;2024-02-21T05:26:06;15.00;;;11.30;;
6426;SDS011;3246;42.664;23.308;2024-02-21T05:28:33;17.10;;;12.77;;
6426;SDS011;3246;42.664;23.308;2024-02-21T05:30:59;15.83;;;13.00;;
6426;SDS011;3246;42.664;23.308;2024-02-21T05:33:28;17.30;;;12.43;;
6426;SDS011;3246;42.664;23.308;2024-02-21T05:35:55;16.97;;;11.57;;
6426;SDS011;3246;42.664;23.308;2024-02-21T05:38:21;21.77;;;12.50;;
6426;SDS011;3246;42.664;23.308;2024-02-21T05:40:48;14.83;;;11.67;;
6426;SDS011;3246;42.664;23.308;2024-02-21T05:43:15;18.40;;;13.03;;
6426;SDS011;3246;42.664;23.308;2024-02-21T05:45:42;14.57;;;11.57;;
6426;SDS011;3246;42.664;23.308;2024-02-21T05:48:08;15.37;;;12.47;;
6426;SDS011;3246;42.664;23.308;2024-02-21T05:50:37;17.83;;;12.73;;
6426;SDS011;3246;42.664;23.308;2024-02-21T05:53:04;16.93;;;12.60;;
6426;SDS011;3246;42.664;23.308;2024-02-21T05:55:30;19.67;;;13.37;;
6426;SDS011;3246;42.664;23.308;2024-02-21T05:57:57;21.97;;;15.40;;
6426;SDS011;3246;42.664;23.308;2024-02-21T06:00:24;19.80;;;14.30;;
6426;SDS011;3246;42.664;23.308;2024-02-21T06:02:51;23.87;;;16.77;;
6426;SDS011;3246;42.664;23.308;2024-02-21T06:05:18;23.77;;;17.33;;
6426;SDS011;3246;42.664;23.308;2024-02-21T06:07:46;34.33;;;26.87;;
6426;SDS011;3246;42.664;23.308;2024-02-21T06:10:13;35.27;;;26.73;;
6426;SDS011;3246;42.664;23.308;2024-02-21T06:12:40;34.53;;;27.97;;
6426;SDS011;3246;42.664;23.308;2024-02-21T06:15:07;27.40;;;21.97;;
6426;SDS011;3246;42.664;23.308;2024-02-21T06:17:34;31.27;;;23.00;;
6426;SDS011;3246;42.664;23.308;2024-02-21T06:20:01;27.80;;;22.93;;
6426;SDS011;3246;42.664;23.308;2024-02-21T06:22:28;24.17;;;19.43;;
6426;SDS011;3246;42.664;23.308;2024-02-21T06:24:57;25.77;;;20.10;;
6426;SDS011;3246;42.664;23.308;2024-02-21T06:27:24;28.50;;;22.30;;
6426;SDS011;3246;42.664;23.308;2024-02-21T06:29:51;31.70;;;23.70;;
6426;SDS011;3246;42.664;23.308;2024-02-21T06:32:18;25.73;;;21.03;;
6426;SDS011;3246;42.664;23.308;2024-02-21T06:34:44;29.63;;;25.47;;
6426;SDS011;3246;42.664;23.308;2024-02-21T06:37:11;32.73;;;24.27;;
6426;SDS011;3246;42.664;23.308;2024-02-21T06:39:38;34.03;;;26.70;;
6426;SDS011;3246;42.664;23.308;2024-02-21T06:42:07;34.97;;;27.40;;
6426;SDS011;3246;42.664;23.308;2024-02-21T06:44:34;30.50;;;24.97;;
6426;SDS011;3246;42.664;23.308;2024-02-21T06:47:05;24.53;;;17.93;;
6426;SDS011;3246;42.664;23.308;2024-02-21T06:49:33;21.73;;;16.23;;
6426;SDS011;3246;42.664;23.308;2024-02-21T06:52:02;23.70;;;16.23;;
6426;SDS011;3246;42.664;23.308;2024-02-21T06:54:29;18.57;;;14.23;;
6426;SDS011;3246;42.664;23.308;2024-02-21T06:56:56;19.93;;;15.20;;
6426;SDS011;3246;42.664;23.308;2024-02-21T06:59:24;17.20;;;14.00;;
6426;SDS011;3246;42.664;23.308;2024-02-21T07:01:53;17.47;;;13.53;;
6426;SDS011;3246;42.664;23.308;2024-02-21T07:04:22;17.83;;;12.70;;
6426;SDS011;3246;42.664;23.308;2024-02-21T07:06:49;15.77;;;11.73;;
6426;SDS011;3246;42.664;23.308;2024-02-21T07:09:16;20.07;;;14.23;;
6426;SDS011;3246;42.664;23.308;2024-02-21T07:11:43;17.67;;;12.53;;
6426;SDS011;3246;42.664;23.308;2024-02-21T07:14:09;17.03;;;13.70;;
6426;SDS011;3246;42.664;23.308;2024-02-21T07:16:37;18.77;;;13.30;;
6426;SDS011;3246;42.664;23.308;2024-02-21T07:19:04;16.03;;;13.40;;
6426;SDS011;3246;42.664;23.308;2024-02-21T07:21:31;19.77;;;14.10;;
6426;SDS011;3246;42.664;23.308;2024-02-21T07:23:58;16.73;;;13.63;;
6426;SDS011;3246;42.664;23.308;2024-02-21T07:26:25;19.67;;;14.03;;
6426;SDS011;3246;42.664;23.308;2024-02-21T07:28:52;21.70;;;13.60;;
6426;SDS011;3246;42.664;23.308;2024-02-21T07:31:19;15.73;;;12.00;;
6426;SDS011;3246;42.664;23.308;2024-02-21T07:33:47;18.93;;;12.60;;
6426;SDS011;3246;42.664;23.308;2024-02-21T07:36:15;15.93;;;13.60;;
6426;SDS011;3246;42.664;23.308;2024-02-21T07:38:42;16.80;;;11.80;;
6426;SDS011;3246;42.664;23.308;2024-02-21T07:41:09;15.30;;;12.37;;
6426;SDS011;3246;42.664;23.308;2024-02-21T07:43:35;14.83;;;11.37;;
6426;SDS011;3246;42.664;23.308;2024-02-21T07:46:02;16.30;;;12.00;;
6426;SDS011;3246;42.664;23.308;2024-02-21T07:48:29;14.63;;;11.27;;
6426;SDS011;3246;42.664;23.308;2024-02-21T07:50:57;13.60;;;11.73;;
6426;SDS011;3246;42.664;23.308;2024-02-21T07:53:26;19.13;;;12.70;;
6426;SDS011;3246;42.664;23.308;2024-02-21T07:55:53;20.40;;;12.47;;
6426;SDS011;3246;42.664;23.308;2024-02-21T07:58:19;17.50;;;12.37;;
6426;SDS011;3246;42.664;23.308;2024-02-21T08:00:46;18.20;;;12.50;;
6426;SDS011;3246;42.664;23.308;2024-02-21T08:03:13;16.67;;;12.63;;
6426;SDS011;3246;42.664;23.308;2024-02-21T08:05:42;15.17;;;11.93;;
6426;SDS011;3246;42.664;23.308;2024-02-21T08:08:10;17.17;;;12.50;;
6426;SDS011;3246;42.664;23.308;2024-02-21T08:10:43;16.33;;;11.47;;
6426;SDS011;3246;42.664;23.308;2024-02-21T08:13:10;14.67;;;11.50;;
6426;SDS011;3246;42.664;23.308;2024-02-21T08:15:36;17.20;;;12.50;;
6426;SDS011;3246;42.664;23.308;2024-02-21T08:18:06;17.83;;;13.53;;
6426;SDS011;3246;42.664;23.308;2024-02-21T08:20:33;18.53;;;12.97;;
6426;SDS011;3246;42.664;23.308;2024-02-21T08:23:00;18.43;;;13.63;;
6426;SDS011;3246;42.664;23.308;2024-02-21T08:25:28;15.13;;;12.30;;
6426;SDS011;3246;42.664;23.308;2024-02-21T08:27:57;16.47;;;13.17;;
6426;SDS011;3246;42.664;23.308;2024-02-21T08:30:25;19.00;;;13.27;;
6426;SDS011;3246;42.664;23.308;2024-02-21T08:32:52;17.37;;;11.73;;
6426;SDS011;3246;42.664;23.308;2024-02-21T08:35:19;13.80;;;11.10;;
6426;SDS011;3246;42.664;23.308;2024-02-21T08:37:47;13.50;;;11.00;;
6426;SDS011;3246;42.664;23.308;2024-02-21T08:40:14;13.03;;;11.63;;
6426;SDS011;3246;42.664;23.308;2024-02-21T08:42:44;13.33;;;11.40;;
6426;SDS011;3246;42.664;23.308;2024-02-21T08:45:11;15.27;;;11.10;;
6426;SDS011;3246;42.664;23.308;2024-02-21T08:47:39;16.80;;;11.27;;
6426;SDS011;3246;42.664;23.308;2024-02-21T08:50:06;17.33;;;13.53;;
6426;SDS011;3246;42.664;23.308;2024-02-21T08:52:34;13.10;;;11.00;;
6426;SDS011;3246;42.664;23.308;2024-02-21T08:55:01;11.47;;;10.27;;
6426;SDS011;3246;42.664;23.308;2024-02-21T08:57:28;13.17;;;10.40;;
6426;SDS011;3246;42.664;23.308;2024-02-21T09:00:03;13.70;;;11.63;;
6426;SDS011;3246;42.664;23.308;2024-02-21T09:02:34;13.50;;;11.53;;
6426;SDS011;3246;42.664;23.308;2024-02-21T09:05:03;14.83;;;11.03;;
6426;SDS011;3246;42.664;23.308;2024-02-21T09:07:31;12.70;;;10.77;;
6426;SDS011;3246;42.664;23.308;2024-02-21T09:09:57;11.93;;;10.60;;
6426;SDS011;3246;42.664;23.308;2024-02-21T09:12:24;12.73;;;11.03;;
6426;SDS011;3246;42.664;23.308;2024-02-21T09:14:51;16.23;;;12.40;;
6426;SDS011;3246;42.664;23.308;2024-02-21T09:17:19;16.67;;;12.87;;
6426;SDS011;3246;42.664;23.308;2024-02-21T09:19:46;14.10;;;11.47;;
6426;SDS011;3246;42.664;23.308;2024-02-21T09:22:13;14.00;;;11.37;;
6426;SDS011;3246;42.664;23.308;2024-02-21T09:24:40;16.00;;;12.80;;
6426;SDS011;3246;42.664;23.308;2024-02-21T09:27:07;13.93;;;11.73;;
6426;SDS011;3246;42.664;23.308;2024-02-21T09:29:34;14.47;;;12.20;;
6426;SDS011;3246;42.664;23.308;2024-02-21T09:32:01;15.43;;;12.73;;
6426;SDS011;3246;42.664;23.308;2024-02-21T09:34:30;13.03;;;11.73;;
6426;SDS011;3246;42.664;23.308;2024-02-21T09:36:57;14.97;;;12.23;;
6426;SDS011;3246;42.664;23.308;2024-02-21T09:39:23;14.13;;;12.37;;
6426;SDS011;3246;42.664;23.308;2024-02-21T09:41:52;12.90;;;11.57;;
6426;SDS011;3246;42.664;23.308;2024-02-21T09:44:24;11.70;;;10.30;;
6426;SDS011;3246;42.664;23.308;2024-02-21T09:47:02;13.93;;;11.47;;
6426;SDS011;3246;42.664;23.308;2024-02-21T09:49:31;14.83;;;11.90;;
6426;SDS011;3246;42.664;23.308;2024-02-21T09:52:00;13.30;;;11.03;;
6426;SDS011;3246;42.664;23.308;2024-02-21T09:54:29;11.27;;;10.00;;
6426;SDS011;3246;42.664;23.308;2024-02-21T09:56:56;13.33;;;10.60;;
6426;SDS011;3246;42.664;23.308;2024-02-21T09:59:23;15.40;;;13.27;;
6426;SDS011;3246;42.664;23.308;2024-02-21T10:01:52;14.10;;;12.40;;
6426;SDS011;3246;42.664;23.308;2024-02-21T10:04:19;15.60;;;11.27;;
6426;SDS011;3246;42.664;23.308;2024-02-21T10:06:47;13.17;;;10.37;;
6426;SDS011;3246;42.664;23.308;2024-02-21T10:09:21;10.63;;;9.53;;
6426;SDS011;3246;42.664;23.308;2024-02-21T10:11:49;11.33;;;10.10;;
6426;SDS011;3246;42.664;23.308;2024-02-21T10:14:16;9.37;;;8.47;;
6426;SDS011;3246;42.664;23.308;2024-02-21T10:16:43;11.77;;;9.30;;
6426;SDS011;3246;42.664;23.308;2024-02-21T10:19:17;10.13;;;8.87;;
6426;SDS011;3246;42.664;23.308;2024-02-21T10:21:57;9.33;;;8.33;;
6426;SDS011;3246;42.664;23.308;2024-02-21T10:24:28;8.10;;;7.10;;
6426;SDS011;3246;42.664;23.308;2024-02-21T10:27:01;9.80;;;8.80;;
6426;SDS011;3246;42.664;23.308;2024-02-21T10:29:29;8.13;;;7.33;;
6426;SDS011;3246;42.664;23.308;2024-02-21T10:32:03;10.27;;;8.93;;
6426;SDS011;3246;42.664;23.308;2024-02-21T10:34:31;9.77;;;8.13;;
6426;SDS011;3246;42.664;23.308;2024-02-21T10:37:03;8.33;;;7.53;;
6426;SDS011;3246;42.664;23.308;2024-02-21T10:39:31;11.40;;;8.17;;
6426;SDS011;3246;42.664;23.308;2024-02-21T10:41:59;9.40;;;8.00;;
6426;SDS011;3246;42.664;23.308;2024-02-21T10:44:28;8.63;;;7.73;;
6426;SDS011;3246;42.664;23.308;2024-02-21T10:46:56;17.10;;;14.03;;
6426;SDS011;3246;42.664;23.308;2024-02-21T10:49:23;9.10;;;8.10;;
6426;SDS011;3246;42.664;23.308;2024-02-21T10:51:54;9.00;;;8.10;;
6426;SDS011;3246;42.664;23.308;2024-02-21T10:54:34;7.17;;;6.47;;
6426;SDS011;3246;42.664;23.308;2024-02-21T10:57:07;7.03;;;6.33;;
6426;SDS011;3246;42.664;23.308;2024-02-21T10:59:37;8.47;;;6.80;;
6426;SDS011;3246;42.664;23.308;2024-02-21T11:02:04;6.90;;;6.33;;
6426;SDS011;3246;42.664;23.308;2024-02-21T11:04:31;7.93;;;5.77;;
6426;SDS011;3246;42.664;23.308;2024-02-21T11:07:01;5.57;;;5.07;;
6426;SDS011;3246;42.664;23.308;2024-02-21T11:09:31;5.40;;;4.90;;
6426;SDS011;3246;42.664;23.308;2024-02-21T11:12:01;6.00;;;5.40;;
6426;SDS011;3246;42.664;23.308;2024-02-21T11:14:29;5.77;;;5.27;;
6426;SDS011;3246;42.664;23.308;2024-02-21T11:16:58;5.03;;;4.63;;
6426;SDS011;3246;42.664;23.308;2024-02-21T11:19:25;5.93;;;5.00;;
6426;SDS011;3246;42.664;23.308;2024-02-21T11:21:53;5.03;;;4.53;;
6426;SDS011;3246;42.664;23.308;2024-02-21T11:24:25;5.13;;;4.73;;
6426;SDS011;3246;42.664;23.308;2024-02-21T11:26:54;6.67;;;4.60;;
6426;SDS011;3246;42.664;23.308;2024-02-21T11:29:24;4.83;;;4.43;;
6426;SDS011;3246;42.664;23.308;2024-02-21T11:31:51;5.53;;;5.03;;
6426;SDS011;3246;42.664;23.308;2024-02-21T11:34:19;8.13;;;4.07;;
6426;SDS011;3246;42.664;23.308;2024-02-21T11:36:46;4.07;;;3.63;;
6426;SDS011;3246;42.664;23.308;2024-02-21T11:39:21;4.37;;;3.97;;
6426;SDS011;3246;42.664;23.308;2024-02-21T11:44:34;5.30;;;4.80;;
6426;SDS011;3246;42.664;23.308;2024-02-21T11:47:03;5.27;;;4.87;;
6426;SDS011;3246;42.664;23.308;2024-02-21T11:49:30;5.53;;;3.83;;
6426;SDS011;3246;42.664;23.308;2024-02-21T11:51:57;8.80;;;4.57;;
6426;SDS011;3246;42.664;23.308;2024-02-21T11:54:26;5.37;;;4.87;;
6426;SDS011;3246;42.664;23.308;2024-02-21T11:56:52;5.33;;;4.83;;
6426;SDS011;3246;42.664;23.308;2024-02-21T11:59:21;5.33;;;4.93;;
6426;SDS011;3246;42.664;23.308;2024-02-21T12:01:48;4.93;;;4.57;;
6426;SDS011;3246;42.664;23.308;2024-02-21T12:04:17;4.90;;;4.50;;
6426;SDS011;3246;42.664;23.308;2024-02-21T12:06:44;5.03;;;4.60;;
6426;SDS011;3246;42.664;23.308;2024-02-21T12:09:13;5.77;;;5.27;;
6426;SDS011;3246;42.664;23.308;2024-02-21T12:11:40;6.27;;;5.77;;
6426;SDS011;3246;42.664;23.308;2024-02-21T12:14:07;5.87;;;5.37;;
6426;SDS011;3246;42.664;23.308;2024-02-21T12:16:35;9.80;;;8.30;;
6426;SDS011;3246;42.664;23.308;2024-02-21T12:19:03;6.37;;;5.77;;
6426;SDS011;3246;42.664;23.308;2024-02-21T12:21:30;6.60;;;5.97;;
6426;SDS011;3246;42.664;23.308;2024-02-21T12:24:10;6.37;;;5.70;;
6426;SDS011;3246;42.664;23.308;2024-02-21T12:26:38;5.93;;;4.63;;
6426;SDS011;3246;42.664;23.308;2024-02-21T12:29:05;5.13;;;4.00;;
6426;SDS011;3246;42.664;23.308;2024-02-21T12:31:32;5.40;;;4.90;;
6426;SDS011;3246;42.664;23.308;2024-02-21T12:34:01;8.33;;;6.00;;
6426;SDS011;3246;42.664;23.308;2024-02-21T12:36:28;7.67;;;5.37;;
6426;SDS011;3246;42.664;23.308;2024-02-21T12:38:54;4.83;;;4.43;;
6426;SDS011;3246;42.664;23.308;2024-02-21T12:41:21;5.27;;;4.77;;
6426;SDS011;3246;42.664;23.308;2024-02-21T12:43:50;5.73;;;5.10;;
6426;SDS011;3246;42.664;23.308;2024-02-21T12:46:17;5.77;;;5.17;;
6426;SDS011;3246;42.664;23.308;2024-02-21T12:48:44;6.10;;;5.57;;
6426;SDS011;3246;42.664;23.308;2024-02-21T12:51:12;5.57;;;5.03;;
6426;SDS011;3246;42.664;23.308;2024-02-21T12:53:40;6.87;;;6.23;;
6426;SDS011;3246;42.664;23.308;2024-02-21T12:56:07;7.47;;;6.03;;
6426;SDS011;3246;42.664;23.308;2024-02-21T12:58:34;8.73;;;6.30;;
6426;SDS011;3246;42.664;23.308;2024-02-21T13:01:01;6.73;;;6.13;;
6426;SDS011;3246;42.664;23.308;2024-02-21T13:03:27;7.30;;;6.60;;
6426;SDS011;3246;42.664;23.308;2024-02-21T13:05:55;6.50;;;5.90;;
6426;SDS011;3246;42.664;23.308;2024-02-21T13:08:25;6.70;;;6.00;;
6426;SDS011;3246;42.664;23.308;2024-02-21T13:10:52;7.10;;;5.63;;
6426;SDS011;3246;42.664;23.308;2024-02-21T13:13:19;6.90;;;6.23;;
6426;SDS011;3246;42.664;23.308;2024-02-21T13:15:46;7.40;;;6.37;;
6426;SDS011;3246;42.664;23.308;2024-02-21T13:18:12;7.73;;;6.93;;
6426;SDS011;3246;42.664;23.308;2024-02-21T13:20:39;7.03;;;6.40;;
6426;SDS011;3246;42.664;23.308;2024-02-21T13:23:06;8.60;;;7.30;;
6426;SDS011;3246;42.664;23.308;2024-02-21T13:25:34;6.03;;;5.53;;
6426;SDS011;3246;42.664;23.308;2024-02-21T13:28:01;6.83;;;6.13;;
6426;SDS011;3246;42.664;23.308;2024-02-21T13:30:28;5.93;;;5.37;;
6426;SDS011;3246;42.664;23.308;2024-02-21T13:32:55;5.90;;;5.23;;
6426;SDS011;3246;42.664;23.308;2024-02-21T13:35:22;6.27;;;5.67;;
6426;SDS011;3246;42.664;23.308;2024-02-21T13:37:48;5.70;;;5.20;;
6426;SDS011;3246;42.664;23.308;2024-02-21T13:40:15;6.43;;;5.83;;
6426;SDS011;3246;42.664;23.308;2024-02-21T13:42:43;4.80;;;4.27;;
6426;SDS011;3246;42.664;23.308;2024-02-21T13:45:10;5.37;;;4.87;;
6426;SDS011;3246;42.664;23.308;2024-02-21T13:47:37;6.03;;;5.47;;
6426;SDS011;3246;42.664;23.308;2024-02-21T13:50:05;5.97;;;5.37;;
6426;SDS011;3246;42.664;23.308;2024-02-21T13:52:34;6.93;;;5.50;;
6426;SDS011;3246;42.664;23.308;2024-02-21T13:55:01;6.13;;;5.53;;
6426;SDS011;3246;42.664;23.308;2024-02-21T13:57:28;5.87;;;5.27;;
6426;SDS011;3246;42.664;23.308;2024-02-21T13:59:56;9.37;;;6.07;;
6426;SDS011;3246;42.664;23.308;2024-02-21T14:02:24;7.00;;;6.30;;
6426;SDS011;3246;42.664;23.308;2024-02-21T14:04:51;7.83;;;5.27;;
6426;SDS011;3246;42.664;23.308;2024-02-21T14:07:18;6.30;;;5.70;;
6426;SDS011;3246;42.664;23.308;2024-02-21T14:09:44;5.47;;;4.97;;
6426;SDS011;3246;42.664;23.308;2024-02-21T14:12:11;5.87;;;5.33;;
6426;SDS011;3246;42.664;23.308;2024-02-21T14:14:38;6.30;;;5.03;;
6426;SDS011;3246;42.664;23.308;2024-02-21T14:17:07;5.80;;;5.23;;
6426;SDS011;3246;42.664;23.308;2024-02-21T14:19:34;6.67;;;5.97;;
6426;SDS011;3246;42.664;23.308;2024-02-21T14:22:01;5.93;;;5.33;;
6426;SDS011;3246;42.664;23.308;2024-02-21T14:24:28;6.73;;;5.73;;
6426;SDS011;3246;42.664;23.308;2024-02-21T14:26:55;6.90;;;5.50;;
6426;SDS011;3246;42.664;23.308;2024-02-21T14:29:22;6.57;;;5.90;;
6426;SDS011;3246;42.664;23.308;2024-02-21T14:31:48;8.73;;;6.53;;
6426;SDS011;3246;42.664;23.308;2024-02-21T14:34:16;6.07;;;5.57;;
6426;SDS011;3246;42.664;23.308;2024-02-21T14:36:43;6.93;;;6.33;;
6426;SDS011;3246;42.664;23.308;2024-02-21T14:39:10;8.63;;;7.83;;
6426;SDS011;3246;42.664;23.308;2024-02-21T14:41:37;8.83;;;6.90;;
6426;SDS011;3246;42.664;23.308;2024-02-21T14:44:04;7.53;;;6.50;;
6426;SDS011;3246;42.664;23.308;2024-02-21T14:46:34;7.77;;;5.67;;
6426;SDS011;3246;42.664;23.308;2024-02-21T14:49:03;7.07;;;6.37;;
6426;SDS011;3246;42.664;23.308;2024-02-21T14:51:31;6.57;;;5.87;;
6426;SDS011;3246;42.664;23.308;2024-02-21T14:53:59;10.70;;;6.33;;
6426;SDS011;3246;42.664;23.308;2024-02-21T14:56:25;7.97;;;5.50;;